createdAt,value
2019-03-21T00:00:54.146Z,9.93
2019-03-21T00:03:23.167Z,9.93
2019-03-21T00:05:52.061Z,9.95
2019-03-21T00:08:21.029Z,10.03
2019-03-21T00:11:44.676Z,10.00
2019-03-21T00:14:47.830Z,10.01
2019-03-21T00:17:18.970Z,9.94
2019-03-21T00:19:48.029Z,9.87
2019-03-21T00:22:17.312Z,9.96
2019-03-21T00:24:46.194Z,9.93
2019-03-21T00:27:15.094Z,9.97
2019-03-21T00:29:43.978Z,10.02
2019-03-21T00:32:13.124Z,9.99
2019-03-21T00:34:42.124Z,9.99
2019-03-21T00:37:11.139Z,10.00
2019-03-21T00:39:39.993Z,10.00
2019-03-21T00:42:09.025Z,10.11
2019-03-21T00:44:37.997Z,10.00
2019-03-21T00:47:06.891Z,10.05
2019-03-21T00:49:35.769Z,9.95
2019-03-21T00:52:05.650Z,9.84
2019-03-21T00:54:35.406Z,9.98
2019-03-21T00:57:04.378Z,9.92
2019-03-21T00:59:33.302Z,9.95
2019-03-21T01:02:02.205Z,9.92
2019-03-21T01:04:33.400Z,10.09
2019-03-21T01:07:03.682Z,9.99
2019-03-21T01:09:32.694Z,10.02
2019-03-21T01:12:01.709Z,10.04
2019-03-21T01:14:30.624Z,10.06
2019-03-21T01:16:59.651Z,10.11
2019-03-21T01:19:28.671Z,9.92
2019-03-21T01:21:57.671Z,9.97
2019-03-21T01:24:26.680Z,9.99
2019-03-21T01:26:56.894Z,9.91
2019-03-21T01:29:26.108Z,9.98
2019-03-21T01:31:55.071Z,10.03
2019-03-21T01:34:24.194Z,9.93
2019-03-21T01:36:53.078Z,9.95
2019-03-21T01:39:23.096Z,9.95
2019-03-21T01:41:52.377Z,10.00
2019-03-21T01:44:21.401Z,10.07
2019-03-21T01:46:51.532Z,10.01
2019-03-21T01:49:20.554Z,10.04
2019-03-21T01:51:49.423Z,9.98
2019-03-21T01:54:18.309Z,10.08
2019-03-21T01:56:47.301Z,10.11
2019-03-21T01:59:16.281Z,10.11
2019-03-21T02:01:45.576Z,10.06
2019-03-21T02:04:14.560Z,9.94
2019-03-21T02:06:43.446Z,10.05
2019-03-21T02:09:12.367Z,9.98
2019-03-21T02:11:41.943Z,10.01
2019-03-21T02:14:11.482Z,9.99
2019-03-21T02:16:41.992Z,9.91
2019-03-21T02:19:11.718Z,9.99
2019-03-21T02:21:40.693Z,10.04
2019-03-21T02:24:09.906Z,10.08
2019-03-21T02:26:38.812Z,10.09
2019-03-21T02:29:07.978Z,10.15
2019-03-21T02:31:36.889Z,10.04
2019-03-21T02:34:06.362Z,10.10
2019-03-21T02:36:35.330Z,9.98
2019-03-21T02:39:06.353Z,9.99
2019-03-21T02:41:35.381Z,10.00
2019-03-21T02:44:04.433Z,10.03
2019-03-21T02:46:33.302Z,9.96
2019-03-21T02:49:03.116Z,10.01
2019-03-21T02:51:32.261Z,9.97
2019-03-21T02:54:01.198Z,9.88
2019-03-21T02:56:30.242Z,9.98
2019-03-21T02:58:59.366Z,9.96
2019-03-21T03:01:28.545Z,9.91
2019-03-21T03:03:57.678Z,10.00
2019-03-21T03:06:26.656Z,10.03
2019-03-21T03:08:55.743Z,9.85
2019-03-21T03:11:24.703Z,10.02
2019-03-21T03:13:54.020Z,9.95
2019-03-21T03:16:23.392Z,10.01
2019-03-21T03:18:53.080Z,9.97
2019-03-21T03:21:22.069Z,9.98
2019-03-21T03:23:51.266Z,9.83
2019-03-21T03:26:20.239Z,9.90
2019-03-21T03:28:49.149Z,9.93
2019-03-21T03:31:18.153Z,9.86
2019-03-21T03:33:47.062Z,9.81
2019-03-21T03:36:16.420Z,9.80
2019-03-21T03:38:45.350Z,9.78
2019-03-21T03:41:14.425Z,9.77
2019-03-21T03:43:43.617Z,9.69
2019-03-21T03:46:12.903Z,9.66
2019-03-21T03:48:42.436Z,9.69
2019-03-21T03:51:11.525Z,9.64
2019-03-21T03:53:42.469Z,9.65
2019-03-21T03:56:11.289Z,9.70
2019-03-21T03:58:42.306Z,9.64
2019-03-21T04:01:11.273Z,9.73
2019-03-21T04:03:40.394Z,9.81
2019-03-21T04:06:09.350Z,9.70
2019-03-21T04:08:38.358Z,9.77
2019-03-21T04:11:07.328Z,9.70
2019-03-21T04:13:36.204Z,9.79
2019-03-21T04:16:05.256Z,9.87
2019-03-21T04:18:34.202Z,9.85
2019-03-21T04:21:03.455Z,9.82
2019-03-21T04:23:32.324Z,9.87
2019-03-21T04:26:18.644Z,9.81
2019-03-21T04:28:47.705Z,9.83
2019-03-21T04:31:16.599Z,9.90
2019-03-21T04:33:45.744Z,9.82
2019-03-21T04:36:14.624Z,9.89
2019-03-21T04:38:43.545Z,9.90
2019-03-21T04:41:12.537Z,9.91
2019-03-21T04:43:41.508Z,9.75
2019-03-21T04:46:10.383Z,9.80
2019-03-21T04:48:41.057Z,9.75
2019-03-21T04:51:10.022Z,9.76
2019-03-21T04:53:38.971Z,9.84
2019-03-21T04:56:07.911Z,9.75
2019-03-21T04:58:37.612Z,9.79
2019-03-21T05:01:06.455Z,9.72
2019-03-21T05:03:35.411Z,9.70
2019-03-21T05:06:04.567Z,9.74
2019-03-21T05:08:33.544Z,9.76
2019-03-21T05:11:02.479Z,9.76
2019-03-21T05:13:31.448Z,9.71
2019-03-21T05:16:00.315Z,9.77
2019-03-21T05:18:34.090Z,9.82
2019-03-21T05:21:03.598Z,9.76
2019-03-21T05:23:33.480Z,9.74
2019-03-21T05:26:04.092Z,9.76
2019-03-21T05:28:33.242Z,9.71
2019-03-21T05:31:13.870Z,9.76
2019-03-21T05:33:43.048Z,9.63
2019-03-21T05:36:12.747Z,9.76
2019-03-21T05:38:41.691Z,9.68
2019-03-21T05:41:10.704Z,9.67
2019-03-21T05:43:48.267Z,9.64
2019-03-21T05:46:25.948Z,9.59
2019-03-21T05:48:48.283Z,9.59
2019-03-21T05:51:17.306Z,9.56
2019-03-21T05:53:46.237Z,9.52
2019-03-21T05:56:15.235Z,9.44
2019-03-21T05:58:44.195Z,9.42
2019-03-21T06:01:13.365Z,9.38
2019-03-21T06:03:49.411Z,9.31
2019-03-21T06:06:34.855Z,9.36
2019-03-21T06:09:06.424Z,9.41
2019-03-21T06:11:35.728Z,9.39
2019-03-21T06:14:04.964Z,9.22
2019-03-21T06:16:37.849Z,9.32
2019-03-21T06:19:41.076Z,9.29
2019-03-21T06:22:56.613Z,9.38
2019-03-21T06:26:29.978Z,9.37
2019-03-21T06:28:58.957Z,9.35
2019-03-21T06:31:27.982Z,9.47
2019-03-21T06:33:56.875Z,9.42
2019-03-21T06:36:26.347Z,9.38
2019-03-21T06:38:55.383Z,9.43
2019-03-21T06:41:24.564Z,9.51
2019-03-21T06:43:53.760Z,9.46
2019-03-21T06:46:22.719Z,9.47
2019-03-21T06:48:51.604Z,9.35
2019-03-21T06:51:21.158Z,9.31
2019-03-21T06:53:50.168Z,9.33
2019-03-21T06:56:19.183Z,9.45
2019-03-21T06:58:48.354Z,9.58
2019-03-21T07:01:17.229Z,9.46
2019-03-21T07:03:46.156Z,9.53
2019-03-21T07:06:15.056Z,9.45
2019-03-21T07:08:43.977Z,9.56
2019-03-21T07:11:13.534Z,9.58
2019-03-21T07:13:43.668Z,9.46
2019-03-21T07:16:12.561Z,9.63
2019-03-21T07:18:41.548Z,9.60
2019-03-21T07:21:10.763Z,9.57
2019-03-21T07:23:39.731Z,9.71
2019-03-21T07:26:08.626Z,9.72
2019-03-21T07:28:38.677Z,9.67
2019-03-21T07:31:07.724Z,9.76
2019-03-21T07:33:36.632Z,9.94
2019-03-21T07:36:06.037Z,9.95
2019-03-21T07:38:34.881Z,9.72
2019-03-21T07:41:04.695Z,9.83
2019-03-21T07:43:33.571Z,9.92
2019-03-21T07:46:03.999Z,9.78
2019-03-21T07:48:32.949Z,9.82
2019-03-21T07:51:01.982Z,9.82
2019-03-21T07:53:31.068Z,9.96
2019-03-21T07:56:00.047Z,9.92
2019-03-21T07:58:28.966Z,9.85
2019-03-21T08:00:59.079Z,10.04
2019-03-21T08:03:27.969Z,10.03
2019-03-21T08:05:57.064Z,10.09
2019-03-21T08:08:25.925Z,10.10
2019-03-21T08:10:54.828Z,10.15
2019-03-21T08:13:23.819Z,10.15
2019-03-21T08:15:52.781Z,10.22
2019-03-21T08:18:21.673Z,10.24
2019-03-21T08:20:57.216Z,10.30
2019-03-21T08:23:22.717Z,10.19
2019-03-21T08:25:51.788Z,10.29
2019-03-21T08:28:20.869Z,10.25
2019-03-21T08:31:15.140Z,10.32
2019-03-21T08:33:44.338Z,10.38
2019-03-21T08:36:14.559Z,10.40
2019-03-21T08:38:43.966Z,10.43
2019-03-21T08:41:13.085Z,10.49
2019-03-21T08:43:43.144Z,10.53
2019-03-21T08:46:12.589Z,10.48
2019-03-21T08:48:41.650Z,10.52
2019-03-21T08:51:10.534Z,10.63
2019-03-21T08:53:39.565Z,10.68
2019-03-21T08:56:08.828Z,10.68
2019-03-21T08:58:38.612Z,10.82
2019-03-21T09:01:07.558Z,10.93
2019-03-21T09:03:36.585Z,10.95
2019-03-21T09:06:05.777Z,10.80
2019-03-21T09:08:34.675Z,11.07
2019-03-21T09:11:04.853Z,10.96
2019-03-21T09:13:34.576Z,11.03
2019-03-21T09:16:03.563Z,10.94
2019-03-21T09:18:32.437Z,11.05
2019-03-21T09:21:01.372Z,11.10
2019-03-21T09:23:30.263Z,11.10
2019-03-21T09:25:59.590Z,10.97
2019-03-21T09:28:28.474Z,11.10
2019-03-21T09:30:57.510Z,11.16
2019-03-21T09:33:26.534Z,11.24
2019-03-21T09:35:55.778Z,11.28
2019-03-21T09:38:24.761Z,11.32
2019-03-21T09:40:54.020Z,11.37
2019-03-21T09:43:23.041Z,11.34
2019-03-21T09:45:51.991Z,11.39
2019-03-21T09:48:20.876Z,11.33
2019-03-21T09:50:50.000Z,11.39
2019-03-21T09:53:19.029Z,11.37
2019-03-21T09:55:47.945Z,11.39
2019-03-21T09:58:16.875Z,11.40
2019-03-21T10:00:45.831Z,11.31
2019-03-21T10:03:14.793Z,11.26
2019-03-21T10:05:43.650Z,11.40
2019-03-21T10:08:12.650Z,11.48
2019-03-21T10:10:41.657Z,11.52
2019-03-21T10:13:10.856Z,11.52
2019-03-21T10:15:40.338Z,11.55
2019-03-21T10:18:09.239Z,11.55
2019-03-21T10:20:38.719Z,11.48
2019-03-21T10:23:07.726Z,11.53
2019-03-21T10:25:36.652Z,11.53
2019-03-21T10:28:06.197Z,11.59
2019-03-21T10:30:37.289Z,11.62
2019-03-21T10:33:09.471Z,11.65
2019-03-21T10:35:38.373Z,11.73
2019-03-21T10:38:07.991Z,11.60
2019-03-21T10:40:37.334Z,11.51
2019-03-21T10:43:06.755Z,11.61
2019-03-21T10:45:35.718Z,11.56
2019-03-21T10:48:05.448Z,11.65
2019-03-21T10:50:36.799Z,11.68
2019-03-21T10:53:06.478Z,11.71
2019-03-21T10:55:35.553Z,11.71
2019-03-21T10:58:05.915Z,11.74
2019-03-21T11:00:34.969Z,11.67
2019-03-21T11:03:04.688Z,11.78
2019-03-21T11:05:33.560Z,11.91
2019-03-21T11:08:03.097Z,11.80
2019-03-21T11:10:32.282Z,11.89
2019-03-21T11:13:01.270Z,12.01
2019-03-21T11:15:30.200Z,11.88
2019-03-21T11:17:59.128Z,11.84
2019-03-21T11:20:36.028Z,12.04
2019-03-21T11:23:07.490Z,12.02
2019-03-21T11:25:36.716Z,12.09
2019-03-21T11:28:06.857Z,12.06
2019-03-21T11:30:41.080Z,12.17
2019-03-21T11:33:10.283Z,12.19
2019-03-21T11:35:39.648Z,12.36
2019-03-21T11:38:09.103Z,12.47
2019-03-21T11:40:38.054Z,12.55
2019-03-21T11:43:12.266Z,12.61
2019-03-21T11:45:41.374Z,12.66
2019-03-21T11:48:10.306Z,12.72
2019-03-21T11:50:40.355Z,12.76
2019-03-21T11:53:09.537Z,12.86
2019-03-21T11:55:38.502Z,12.90
2019-03-21T11:58:08.037Z,12.89
2019-03-21T12:00:43.717Z,12.88
2019-03-21T12:03:07.935Z,13.00
2019-03-21T12:05:36.986Z,13.10
2019-03-21T12:08:05.866Z,13.03
2019-03-21T12:10:34.860Z,13.04
2019-03-21T12:13:03.731Z,13.26
2019-03-21T12:15:32.770Z,13.26
2019-03-21T12:18:01.658Z,13.21
2019-03-21T12:20:34.665Z,13.32
2019-03-21T12:23:04.805Z,13.66
2019-03-21T12:25:33.743Z,13.66
2019-03-21T12:28:02.591Z,13.78
2019-03-21T12:30:41.691Z,13.60
2019-03-21T12:33:11.002Z,13.53
2019-03-21T12:35:40.040Z,13.66
2019-03-21T12:38:10.130Z,13.57
2019-03-21T12:40:39.046Z,13.59
2019-03-21T12:43:07.976Z,13.67
2019-03-21T12:45:37.031Z,13.80
2019-03-21T12:48:06.525Z,13.63
2019-03-21T12:50:35.442Z,13.65
2019-03-21T12:53:04.690Z,13.60
2019-03-21T12:55:34.092Z,13.69
2019-03-21T12:58:03.491Z,13.84
2019-03-21T13:00:41.060Z,13.68
2019-03-21T13:03:10.202Z,13.88
2019-03-21T13:05:39.250Z,14.08
2019-03-21T13:08:08.317Z,14.12
2019-03-21T13:10:37.189Z,14.00
2019-03-21T13:13:06.689Z,13.97
2019-03-21T13:15:35.827Z,13.87
2019-03-21T13:18:06.869Z,13.88
2019-03-21T13:20:36.718Z,13.58
2019-03-21T13:23:06.260Z,13.87
2019-03-21T13:25:35.786Z,13.84
2019-03-21T13:28:05.884Z,13.75
2019-03-21T13:30:35.508Z,13.82
2019-03-21T13:33:05.477Z,13.86
2019-03-21T13:35:34.632Z,13.87
2019-03-21T13:38:04.810Z,14.01
2019-03-21T13:40:33.846Z,14.03
2019-03-21T13:43:02.878Z,13.96
2019-03-21T13:45:32.108Z,13.90
2019-03-21T13:48:01.315Z,14.12
2019-03-21T13:50:30.174Z,13.99
2019-03-21T13:53:04.804Z,13.95
2019-03-21T13:55:30.034Z,14.13
2019-03-21T13:57:59.013Z,14.14
2019-03-21T14:00:27.890Z,14.19
2019-03-21T14:02:56.820Z,14.22
2019-03-21T14:05:25.688Z,14.34
2019-03-21T14:07:54.609Z,14.26
2019-03-21T14:10:23.578Z,14.09
2019-03-21T14:12:52.506Z,14.13
2019-03-21T14:15:23.181Z,14.22
2019-03-21T14:17:52.198Z,14.37
2019-03-21T14:20:21.085Z,14.38
2019-03-21T14:22:50.383Z,14.39
2019-03-21T14:25:19.283Z,14.43
2019-03-21T14:27:48.235Z,14.11
2019-03-21T14:30:17.245Z,13.92
2019-03-21T14:32:46.249Z,13.88
2019-03-21T14:35:15.821Z,13.89
2019-03-21T14:37:45.261Z,14.22
2019-03-21T14:40:14.649Z,14.10
2019-03-21T14:42:43.727Z,14.05
2019-03-21T14:45:15.391Z,14.20
2019-03-21T14:47:46.235Z,14.13
2019-03-21T14:50:16.363Z,14.09
2019-03-21T14:52:45.564Z,14.03
2019-03-21T14:55:14.893Z,13.99
2019-03-21T14:57:44.394Z,13.90
2019-03-21T15:00:16.253Z,14.04
2019-03-21T15:02:45.273Z,14.12
2019-03-21T15:05:14.835Z,14.11
2019-03-21T15:07:44.030Z,13.87
2019-03-21T15:10:15.153Z,14.10
2019-03-21T15:12:46.406Z,14.23
2019-03-21T15:15:17.245Z,14.01
2019-03-21T15:17:46.137Z,14.21
2019-03-21T15:20:15.694Z,14.10
2019-03-21T15:22:44.828Z,14.10
2019-03-21T15:25:13.945Z,13.95
2019-03-21T15:27:42.866Z,13.92
2019-03-21T15:30:15.718Z,14.00
2019-03-21T15:32:44.794Z,13.72
2019-03-21T15:35:14.789Z,13.61
2019-03-21T15:37:43.689Z,13.53
2019-03-21T15:40:13.282Z,13.74
2019-03-21T15:42:42.209Z,13.43
2019-03-21T15:45:22.069Z,13.59
2019-03-21T15:47:45.665Z,13.63
2019-03-21T15:50:30.589Z,13.41
2019-03-21T15:53:00.354Z,13.40
2019-03-21T15:55:29.516Z,13.50
2019-03-21T15:57:58.442Z,13.41
2019-03-21T16:00:36.163Z,13.34
2019-03-21T16:03:06.383Z,13.41
2019-03-21T16:05:36.514Z,13.43
2019-03-21T16:08:08.570Z,13.38
2019-03-21T16:10:36.593Z,13.06
2019-03-21T16:13:05.589Z,13.14
2019-03-21T16:15:34.546Z,13.29
2019-03-21T16:18:04.267Z,13.18
2019-03-21T16:20:34.175Z,13.22
2019-03-21T16:23:03.442Z,13.32
2019-03-21T16:25:32.427Z,13.25
2019-03-21T16:28:01.417Z,13.19
2019-03-21T16:30:30.542Z,12.97
2019-03-21T16:33:00.618Z,12.96
2019-03-21T16:35:29.556Z,12.96
2019-03-21T16:37:58.597Z,12.85
2019-03-21T16:40:27.616Z,12.96
2019-03-21T16:42:56.483Z,12.91
2019-03-21T16:45:25.453Z,12.97
2019-03-21T16:47:54.426Z,12.96
2019-03-21T16:50:23.339Z,12.96
2019-03-21T16:52:52.498Z,12.74
2019-03-21T16:55:21.437Z,12.76
2019-03-21T16:57:50.427Z,12.68
2019-03-21T17:00:20.799Z,12.68
2019-03-21T17:02:49.999Z,12.73
2019-03-21T17:05:18.955Z,12.71
2019-03-21T17:07:47.846Z,12.70
2019-03-21T17:10:17.395Z,12.61
2019-03-21T17:12:46.363Z,12.60
2019-03-21T17:15:16.253Z,12.43
2019-03-21T17:17:45.202Z,12.36
2019-03-21T17:20:14.432Z,12.51
2019-03-21T17:22:43.500Z,12.40
2019-03-21T17:25:13.011Z,12.45
2019-03-21T17:27:41.944Z,12.43
2019-03-21T17:30:11.534Z,12.43
2019-03-21T17:32:40.468Z,12.26
2019-03-21T17:35:11.564Z,12.28
2019-03-21T17:37:40.468Z,12.30
2019-03-21T17:40:09.933Z,12.14
2019-03-21T17:42:38.996Z,12.26
2019-03-21T17:45:10.497Z,12.32
2019-03-21T17:47:39.440Z,12.28
2019-03-21T17:50:09.515Z,12.24
2019-03-21T17:52:38.772Z,12.05
2019-03-21T17:55:08.807Z,11.99
2019-03-21T17:57:38.138Z,12.03
2019-03-21T18:00:11.699Z,12.09
2019-03-21T18:02:40.888Z,11.90
2019-03-21T18:05:09.874Z,11.84
2019-03-21T18:07:38.924Z,11.85
2019-03-21T18:10:22.104Z,11.83
2019-03-21T18:12:51.634Z,11.79
2019-03-21T18:15:20.594Z,11.65
2019-03-21T18:17:49.969Z,11.56
2019-03-21T18:20:19.003Z,11.57
2019-03-21T18:22:47.933Z,11.59
2019-03-21T18:25:16.988Z,11.61
2019-03-21T18:27:46.875Z,11.52
2019-03-21T18:30:16.218Z,11.52
2019-03-21T18:32:45.955Z,11.50
2019-03-21T18:35:15.222Z,11.46
2019-03-21T18:37:44.472Z,11.54
2019-03-21T18:40:13.551Z,11.40
2019-03-21T18:42:42.467Z,11.44
2019-03-21T18:45:11.849Z,11.33
2019-03-21T18:47:40.940Z,11.33
2019-03-21T18:50:10.305Z,11.35
2019-03-21T18:52:39.956Z,11.26
2019-03-21T18:55:09.500Z,11.20
2019-03-21T18:57:38.407Z,11.25
2019-03-21T19:00:08.332Z,11.24
2019-03-21T19:02:37.466Z,11.26
2019-03-21T19:05:07.290Z,11.26
2019-03-21T19:07:36.604Z,11.14
2019-03-21T19:10:08.120Z,11.22
2019-03-21T19:12:37.255Z,11.22
2019-03-21T19:15:07.799Z,11.23
2019-03-21T19:17:36.706Z,11.21
2019-03-21T19:20:06.736Z,11.08
2019-03-21T19:22:35.715Z,11.20
2019-03-21T19:25:17.437Z,11.18
2019-03-21T19:27:37.895Z,11.28
2019-03-21T19:30:08.032Z,11.24
2019-03-21T19:32:37.202Z,11.23
2019-03-21T19:35:06.866Z,11.01
2019-03-21T19:37:35.937Z,11.21
2019-03-21T19:40:06.765Z,11.23
2019-03-21T19:42:36.295Z,11.27
2019-03-21T19:45:08.484Z,11.21
2019-03-21T19:47:37.445Z,11.28
2019-03-21T19:50:09.077Z,11.26
2019-03-21T19:52:37.993Z,11.21
2019-03-21T19:55:07.652Z,11.03
2019-03-21T19:57:36.607Z,11.05
2019-03-21T20:00:09.619Z,11.08
2019-03-21T20:02:38.699Z,11.20
2019-03-21T20:05:08.629Z,11.20
2019-03-21T20:07:37.772Z,11.11
2019-03-21T20:10:07.477Z,10.91
2019-03-21T20:12:36.594Z,11.00
2019-03-21T20:15:16.303Z,10.91
2019-03-21T20:17:45.409Z,10.78
2019-03-21T20:20:14.374Z,10.91
2019-03-21T20:22:43.308Z,10.91
2019-03-21T20:25:13.422Z,10.80
2019-03-21T20:27:42.308Z,10.71
2019-03-21T20:30:16.782Z,10.45
2019-03-21T20:32:45.711Z,10.63
2019-03-21T20:35:14.724Z,10.69
2019-03-21T20:37:43.617Z,10.64
2019-03-21T20:40:13.048Z,10.63
2019-03-21T20:42:41.991Z,10.50
2019-03-21T20:45:12.364Z,10.67
2019-03-21T20:47:41.261Z,10.59
2019-03-21T20:50:10.981Z,10.65
2019-03-21T20:52:40.035Z,10.40
2019-03-21T20:55:09.657Z,10.40
2019-03-21T20:57:38.916Z,10.48
2019-03-21T21:00:12.647Z,10.51
2019-03-21T21:02:41.613Z,10.51
2019-03-21T21:05:10.939Z,10.59
2019-03-21T21:07:39.828Z,10.56
2019-03-21T21:10:09.317Z,10.44
2019-03-21T21:12:38.288Z,10.51
2019-03-21T21:15:11.765Z,10.51
2019-03-21T21:17:42.975Z,10.56
2019-03-21T21:20:12.795Z,10.53
2019-03-21T21:22:41.698Z,10.44
2019-03-21T21:25:11.426Z,10.33
2019-03-21T21:27:48.706Z,10.15
2019-03-21T21:30:13.120Z,10.32
2019-03-21T21:32:41.994Z,10.29
2019-03-21T21:35:11.172Z,10.36
2019-03-21T21:37:40.022Z,10.29
2019-03-21T21:40:11.226Z,10.29
2019-03-21T21:42:40.386Z,10.28
2019-03-21T21:45:11.958Z,10.14
2019-03-21T21:47:40.915Z,10.08
2019-03-21T21:50:12.137Z,9.99
2019-03-21T21:52:42.362Z,9.89
2019-03-21T21:55:11.981Z,9.77
2019-03-21T21:57:40.868Z,9.81
2019-03-21T22:00:12.574Z,9.83
2019-03-21T22:02:41.473Z,9.83
2019-03-21T22:05:10.611Z,9.78
2019-03-21T22:07:39.584Z,9.70
2019-03-21T22:10:08.989Z,9.55
2019-03-21T22:12:37.959Z,9.57
2019-03-21T22:15:08.795Z,9.40
2019-03-21T22:17:37.706Z,9.22
2019-03-21T22:20:07.387Z,9.08
2019-03-21T22:22:36.417Z,8.93
2019-03-21T22:25:06.611Z,8.86
2019-03-21T22:27:35.503Z,8.91
2019-03-21T22:30:07.011Z,8.77
2019-03-21T22:32:35.926Z,8.77
2019-03-21T22:35:05.348Z,8.70
2019-03-21T22:37:34.312Z,8.68
2019-03-21T22:40:03.751Z,8.63
2019-03-21T22:42:32.630Z,8.57
2019-03-21T22:45:04.178Z,8.53
2019-03-21T22:47:34.133Z,8.48
2019-03-21T22:50:03.471Z,8.42
2019-03-21T22:52:32.356Z,8.34
2019-03-21T22:55:01.457Z,8.32
2019-03-21T22:57:30.353Z,8.27
2019-03-21T22:59:59.292Z,8.24
2019-03-21T23:02:28.124Z,8.18
2019-03-21T23:04:57.081Z,8.09
2019-03-21T23:07:26.111Z,8.16
2019-03-21T23:09:55.005Z,8.24
2019-03-21T23:12:23.899Z,8.30
2019-03-21T23:14:52.781Z,8.21
2019-03-21T23:17:21.974Z,8.16
2019-03-21T23:19:50.948Z,8.25
2019-03-21T23:22:19.815Z,8.23
2019-03-21T23:24:49.675Z,8.18
2019-03-21T23:27:18.535Z,8.30
2019-03-21T23:29:47.501Z,8.33
2019-03-21T23:32:16.439Z,8.40
2019-03-21T23:34:45.641Z,8.45
2019-03-21T23:37:14.568Z,8.62
2019-03-21T23:39:43.456Z,8.70
2019-03-21T23:42:12.355Z,8.78
2019-03-21T23:44:41.422Z,8.76
2019-03-21T23:47:10.334Z,8.67
2019-03-21T23:49:39.214Z,8.70
2019-03-21T23:52:08.748Z,8.73
2019-03-21T23:54:37.612Z,8.95
2019-03-21T23:57:06.629Z,8.94
2019-03-21T23:59:35.895Z,8.92
